createdAt,value
2018-09-02T00:00:36.775Z,15.48
2018-09-02T00:01:42.888Z,15.49
2018-09-02T00:02:49.305Z,15.47
2018-09-02T00:03:55.766Z,15.50
2018-09-02T00:05:02.090Z,15.53
2018-09-02T00:06:08.495Z,15.57
2018-09-02T00:07:14.788Z,15.60
2018-09-02T00:08:21.977Z,15.62
2018-09-02T00:09:28.401Z,15.60
2018-09-02T00:10:34.544Z,15.59
2018-09-02T00:11:40.116Z,15.54
2018-09-02T00:12:46.736Z,15.48
2018-09-02T00:13:53.147Z,15.44
2018-09-02T00:14:59.837Z,15.41
2018-09-02T00:16:05.918Z,15.41
2018-09-02T00:17:12.797Z,15.38
2018-09-02T00:18:18.868Z,15.37
2018-09-02T00:19:25.149Z,15.38
2018-09-02T00:20:31.558Z,15.38
2018-09-02T00:21:38.142Z,15.42
2018-09-02T00:22:44.511Z,15.46
2018-09-02T00:23:50.881Z,15.46
2018-09-02T00:24:57.237Z,15.46
2018-09-02T00:26:03.598Z,15.47
2018-09-02T00:27:10.020Z,15.53
2018-09-02T00:28:16.040Z,15.56
2018-09-02T00:29:22.334Z,15.57
2018-09-02T00:30:28.680Z,15.55
2018-09-02T00:31:35.868Z,15.53
2018-09-02T00:32:42.285Z,15.55
2018-09-02T00:33:48.461Z,15.52
2018-09-02T00:34:55.132Z,15.50
2018-09-02T00:36:01.137Z,15.46
2018-09-02T00:37:07.534Z,15.47
2018-09-02T00:38:13.870Z,15.45
2018-09-02T00:39:20.261Z,15.43
2018-09-02T00:40:26.721Z,15.41
2018-09-02T00:41:32.991Z,15.44
2018-09-02T00:42:39.296Z,15.43
2018-09-02T00:43:45.735Z,15.44
2018-09-02T00:44:51.720Z,15.48
2018-09-02T00:45:58.133Z,15.50
2018-09-02T00:47:03.771Z,15.48
2018-09-02T00:48:10.150Z,15.49
2018-09-02T00:49:16.450Z,15.49
2018-09-02T00:50:22.900Z,15.48
2018-09-02T00:51:30.076Z,15.52
2018-09-02T00:52:36.525Z,15.54
2018-09-02T00:53:42.394Z,15.54
2018-09-02T00:54:48.736Z,15.57
2018-09-02T00:55:57.383Z,15.54
2018-09-02T00:57:05.299Z,15.55
2018-09-02T00:58:14.327Z,15.56
2018-09-02T00:59:22.104Z,15.59
2018-09-02T01:00:29.436Z,15.59
2018-09-02T01:01:34.920Z,15.61
2018-09-02T01:02:41.156Z,15.64
2018-09-02T01:03:47.549Z,15.65
2018-09-02T01:04:53.950Z,15.62
2018-09-02T01:06:00.276Z,15.64
2018-09-02T01:07:06.232Z,15.66
2018-09-02T01:08:12.289Z,15.64
2018-09-02T01:09:18.586Z,15.64
2018-09-02T01:10:25.497Z,15.69
2018-09-02T01:11:31.817Z,15.75
2018-09-02T01:12:39.033Z,15.70
2018-09-02T01:13:45.117Z,15.66
2018-09-02T01:14:51.563Z,15.68
2018-09-02T01:15:58.842Z,15.66
2018-09-02T01:17:05.005Z,15.71
2018-09-02T01:18:11.339Z,15.74
2018-09-02T01:19:17.372Z,15.71
2018-09-02T01:20:23.741Z,15.72
2018-09-02T01:21:29.758Z,15.69
2018-09-02T01:22:35.760Z,15.67
2018-09-02T01:23:42.092Z,15.69
2018-09-02T01:24:48.440Z,15.84
2018-09-02T01:25:54.933Z,15.84
2018-09-02T01:27:01.230Z,15.84
2018-09-02T01:28:07.605Z,15.85
2018-09-02T01:29:13.922Z,15.83
2018-09-02T01:30:20.293Z,15.83
2018-09-02T01:31:27.272Z,15.83
2018-09-02T01:32:33.263Z,15.81
2018-09-02T01:33:39.876Z,15.81
2018-09-02T01:34:46.303Z,15.83
2018-09-02T01:35:52.643Z,15.84
2018-09-02T01:36:59.028Z,15.84
2018-09-02T01:38:05.124Z,15.91
2018-09-02T01:39:10.983Z,15.90
2018-09-02T01:40:16.993Z,15.93
2018-09-02T01:41:23.204Z,15.91
2018-09-02T01:42:30.460Z,15.88
2018-09-02T01:43:36.871Z,15.86
2018-09-02T01:44:43.316Z,15.83
2018-09-02T01:45:49.751Z,15.80
2018-09-02T01:46:56.040Z,15.85
2018-09-02T01:48:02.129Z,15.88
2018-09-02T01:49:08.583Z,15.89
2018-09-02T01:50:14.992Z,15.90
2018-09-02T01:51:21.450Z,15.86
2018-09-02T01:52:27.820Z,15.87
2018-09-02T01:53:34.134Z,15.88
2018-09-02T01:54:40.753Z,15.84
2018-09-02T01:55:47.187Z,15.83
2018-09-02T01:56:53.565Z,15.83
2018-09-02T01:57:59.933Z,15.82
2018-09-02T01:59:06.800Z,15.83
2018-09-02T02:00:12.866Z,15.83
2018-09-02T02:01:19.504Z,15.84
2018-09-02T02:02:25.771Z,15.84
2018-09-02T02:03:32.051Z,15.82
2018-09-02T02:04:38.277Z,15.82
2018-09-02T02:05:44.342Z,15.82
2018-09-02T02:06:50.725Z,15.84
2018-09-02T02:07:56.979Z,15.88
2018-09-02T02:09:03.217Z,15.90
2018-09-02T02:10:09.360Z,15.88
2018-09-02T02:11:15.757Z,15.87
2018-09-02T02:12:22.041Z,15.91
2018-09-02T02:13:28.420Z,15.90
2018-09-02T02:14:34.762Z,15.85
2018-09-02T02:15:40.884Z,15.81
2018-09-02T02:16:47.233Z,15.83
2018-09-02T02:17:53.495Z,15.91
2018-09-02T02:18:59.939Z,15.90
2018-09-02T02:20:05.641Z,15.85
2018-09-02T02:21:12.304Z,15.84
2018-09-02T02:22:18.645Z,15.82
2018-09-02T02:23:25.056Z,15.87
2018-09-02T02:24:31.474Z,15.85
2018-09-02T02:25:37.883Z,15.86
2018-09-02T02:26:44.024Z,15.79
2018-09-02T02:27:50.414Z,15.81
2018-09-02T02:28:56.707Z,15.79
2018-09-02T02:30:02.969Z,15.78
2018-09-02T02:31:09.366Z,15.84
2018-09-02T02:32:15.681Z,15.86
2018-09-02T02:33:23.085Z,15.84
2018-09-02T02:34:30.436Z,15.86
2018-09-02T02:35:36.737Z,15.81
2018-09-02T02:36:43.254Z,15.83
2018-09-02T02:37:51.533Z,15.84
2018-09-02T02:39:00.707Z,15.85
2018-09-02T02:40:07.166Z,15.84
2018-09-02T02:41:13.555Z,15.87
2018-09-02T02:42:20.450Z,15.82
2018-09-02T02:43:26.604Z,15.80
2018-09-02T02:44:32.964Z,15.74
2018-09-02T02:45:39.077Z,15.73
2018-09-02T02:46:45.519Z,15.80
2018-09-02T02:47:51.821Z,15.84
2018-09-02T02:48:58.139Z,15.82
2018-09-02T02:50:05.039Z,15.77
2018-09-02T02:51:11.505Z,15.77
2018-09-02T02:52:22.773Z,15.77
2018-09-02T02:53:28.920Z,15.79
2018-09-02T02:54:35.305Z,15.73
2018-09-02T02:55:41.673Z,15.71
2018-09-02T02:56:49.562Z,15.71
2018-09-02T02:57:56.002Z,15.75
2018-09-02T02:59:02.380Z,15.78
2018-09-02T03:00:08.453Z,15.85
2018-09-02T03:01:15.613Z,15.81
2018-09-02T03:02:22.022Z,15.79
2018-09-02T03:03:28.360Z,15.76
2018-09-02T03:04:34.795Z,15.76
2018-09-02T03:05:41.229Z,15.74
2018-09-02T03:06:47.860Z,15.76
2018-09-02T03:07:54.216Z,15.75
2018-09-02T03:09:00.352Z,15.75
2018-09-02T03:10:06.688Z,15.72
2018-09-02T03:11:13.998Z,15.77
2018-09-02T03:12:20.420Z,15.76
2018-09-02T03:13:26.809Z,15.72
2018-09-02T03:14:33.216Z,15.66
2018-09-02T03:15:40.275Z,15.64
2018-09-02T03:16:46.709Z,15.64
2018-09-02T03:17:53.102Z,15.77
2018-09-02T03:19:00.467Z,15.70
2018-09-02T03:20:06.864Z,15.70
2018-09-02T03:21:13.188Z,15.74
2018-09-02T03:22:19.493Z,15.75
2018-09-02T03:23:25.493Z,15.86
2018-09-02T03:24:31.780Z,15.85
2018-09-02T03:25:38.181Z,15.84
2018-09-02T03:26:44.588Z,15.67
2018-09-02T03:27:50.739Z,15.56
2018-09-02T03:28:56.693Z,15.52
2018-09-02T03:30:02.377Z,15.51
2018-09-02T03:31:08.795Z,15.51
2018-09-02T03:32:15.157Z,15.55
2018-09-02T03:33:21.543Z,15.50
2018-09-02T03:34:27.998Z,15.55
2018-09-02T03:35:34.259Z,15.50
2018-09-02T03:36:39.899Z,15.53
2018-09-02T03:37:46.570Z,15.66
2018-09-02T03:38:53.004Z,15.67
2018-09-02T03:40:00.248Z,15.63
2018-09-02T03:41:06.802Z,15.64
2018-09-02T03:42:13.761Z,15.73
2018-09-02T03:43:19.984Z,15.66
2018-09-02T03:44:26.384Z,15.54
2018-09-02T03:45:32.832Z,15.46
2018-09-02T03:46:39.191Z,15.46
2018-09-02T03:47:50.284Z,15.39
2018-09-02T03:48:56.360Z,15.40
2018-09-02T03:50:02.736Z,15.43
2018-09-02T03:51:09.117Z,15.42
2018-09-02T03:52:15.525Z,15.37
2018-09-02T03:53:21.803Z,15.44
2018-09-02T03:54:28.127Z,15.42
2018-09-02T03:55:34.561Z,15.40
2018-09-02T03:56:40.961Z,15.49
2018-09-02T03:57:47.416Z,15.44
2018-09-02T03:58:53.503Z,15.39
2018-09-02T03:59:59.821Z,15.53
2018-09-02T04:01:06.507Z,15.56
2018-09-02T04:02:12.875Z,15.47
2018-09-02T04:03:19.282Z,15.44
2018-09-02T04:04:25.694Z,15.45
2018-09-02T04:05:31.972Z,15.44
2018-09-02T04:06:38.843Z,15.37
2018-09-02T04:07:45.957Z,15.37
2018-09-02T04:08:52.140Z,15.43
2018-09-02T04:09:58.811Z,15.53
2018-09-02T04:11:05.355Z,15.51
2018-09-02T04:12:11.794Z,15.50
2018-09-02T04:13:18.110Z,15.58
2018-09-02T04:14:24.408Z,15.71
2018-09-02T04:15:30.839Z,15.72
2018-09-02T04:16:37.224Z,15.54
2018-09-02T04:17:43.621Z,15.50
2018-09-02T04:18:50.029Z,15.39
2018-09-02T04:19:57.328Z,15.36
2018-09-02T04:21:04.221Z,15.33
2018-09-02T04:22:10.650Z,15.30
2018-09-02T04:23:17.075Z,15.28
2018-09-02T04:24:23.158Z,15.27
2018-09-02T04:25:29.572Z,15.26
2018-09-02T04:26:35.987Z,15.25
2018-09-02T04:27:42.122Z,15.25
2018-09-02T04:28:48.100Z,15.26
2018-09-02T04:29:54.097Z,15.23
2018-09-02T04:31:00.798Z,15.23
2018-09-02T04:32:07.028Z,15.24
2018-09-02T04:33:13.275Z,15.24
2018-09-02T04:34:19.323Z,15.27
2018-09-02T04:35:25.802Z,15.23
2018-09-02T04:36:32.096Z,15.20
2018-09-02T04:37:38.549Z,15.20
2018-09-02T04:38:44.717Z,15.21
2018-09-02T04:39:51.575Z,15.32
2018-09-02T04:40:58.296Z,15.30
2018-09-02T04:42:03.901Z,15.26
2018-09-02T04:43:10.189Z,15.29
2018-09-02T04:44:16.132Z,15.35
2018-09-02T04:45:21.803Z,15.26
2018-09-02T04:46:28.916Z,15.20
2018-09-02T04:47:35.138Z,15.18
2018-09-02T04:48:41.538Z,15.29
2018-09-02T04:49:47.855Z,15.22
2018-09-02T04:50:54.140Z,15.20
2018-09-02T04:52:00.578Z,15.17
2018-09-02T04:53:07.038Z,15.17
2018-09-02T04:54:13.743Z,15.15
2018-09-02T04:55:20.309Z,15.17
2018-09-02T04:56:26.693Z,15.16
2018-09-02T04:57:33.026Z,15.16
2018-09-02T04:58:39.364Z,15.17
2018-09-02T04:59:45.639Z,15.22
2018-09-02T05:00:52.101Z,15.20
2018-09-02T05:01:58.616Z,15.23
2018-09-02T05:03:04.988Z,15.20
2018-09-02T05:04:11.256Z,15.16
2018-09-02T05:05:17.669Z,15.19
2018-09-02T05:06:24.036Z,15.19
2018-09-02T05:07:30.377Z,15.21
2018-09-02T05:08:36.795Z,15.20
2018-09-02T05:09:43.180Z,15.27
2018-09-02T05:10:49.518Z,15.24
2018-09-02T05:11:55.817Z,15.23
2018-09-02T05:13:02.256Z,15.26
2018-09-02T05:14:08.358Z,15.22
2018-09-02T05:15:14.600Z,15.19
2018-09-02T05:16:20.950Z,15.17
2018-09-02T05:17:27.041Z,15.27
2018-09-02T05:18:33.588Z,15.25
2018-09-02T05:19:40.010Z,15.30
2018-09-02T05:20:46.433Z,15.31
2018-09-02T05:21:52.492Z,15.27
2018-09-02T05:22:58.693Z,15.29
2018-09-02T05:24:04.830Z,15.26
2018-09-02T05:25:11.578Z,15.26
2018-09-02T05:26:17.976Z,15.24
2018-09-02T05:27:24.143Z,15.25
2018-09-02T05:28:30.621Z,15.28
2018-09-02T05:29:36.914Z,15.28
2018-09-02T05:30:43.283Z,15.30
2018-09-02T05:31:49.688Z,15.29
2018-09-02T05:32:55.959Z,15.33
2018-09-02T05:34:02.872Z,15.33
2018-09-02T05:35:08.940Z,15.34
2018-09-02T05:36:16.012Z,15.36
2018-09-02T05:37:22.322Z,15.36
2018-09-02T05:38:28.757Z,15.37
2018-09-02T05:39:35.080Z,15.36
2018-09-02T05:40:41.481Z,15.38
2018-09-02T05:41:47.872Z,15.40
2018-09-02T05:42:54.304Z,15.45
2018-09-02T05:44:00.628Z,15.45
2018-09-02T05:45:06.528Z,15.49
2018-09-02T05:46:12.584Z,15.55
2018-09-02T05:47:19.777Z,15.53
2018-09-02T05:48:26.124Z,15.52
2018-09-02T05:49:32.449Z,15.49
2018-09-02T05:50:39.003Z,15.51
2018-09-02T05:51:45.406Z,15.52
2018-09-02T05:52:51.892Z,15.52
2018-09-02T05:53:58.247Z,15.55
2018-09-02T05:55:04.576Z,15.62
2018-09-02T05:56:10.893Z,15.64
2018-09-02T05:57:17.178Z,15.63
2018-09-02T05:58:24.411Z,15.60
2018-09-02T05:59:30.631Z,15.64
2018-09-02T06:00:37.025Z,15.62
2018-09-02T06:01:43.428Z,15.66
2018-09-02T06:02:49.961Z,15.68
2018-09-02T06:03:56.500Z,15.67
2018-09-02T06:05:02.789Z,15.66
2018-09-02T06:06:08.953Z,15.68
2018-09-02T06:07:15.921Z,15.70
2018-09-02T06:08:22.784Z,15.72
2018-09-02T06:09:28.713Z,15.72
2018-09-02T06:10:35.117Z,15.73
2018-09-02T06:11:41.771Z,15.72
2018-09-02T06:12:48.264Z,15.72
2018-09-02T06:13:55.877Z,15.78
2018-09-02T06:15:02.885Z,15.78
2018-09-02T06:16:09.489Z,15.75
2018-09-02T06:17:15.784Z,15.76
2018-09-02T06:18:22.291Z,15.82
2018-09-02T06:19:30.894Z,15.81
2018-09-02T06:20:38.552Z,15.79
2018-09-02T06:21:45.673Z,15.79
2018-09-02T06:22:52.310Z,15.77
2018-09-02T06:23:59.055Z,15.82
2018-09-02T06:25:05.155Z,15.96
2018-09-02T06:26:11.523Z,15.88
2018-09-02T06:27:17.924Z,15.87
2018-09-02T06:28:24.337Z,15.92
2018-09-02T06:29:30.787Z,15.85
2018-09-02T06:30:37.620Z,15.86
2018-09-02T06:31:44.167Z,15.84
2018-09-02T06:32:50.881Z,15.84
2018-09-02T06:33:57.657Z,15.85
2018-09-02T06:35:04.275Z,15.86
2018-09-02T06:36:11.105Z,15.88
2018-09-02T06:37:17.725Z,15.88
2018-09-02T06:38:24.358Z,15.88
2018-09-02T06:39:31.036Z,15.95
2018-09-02T06:40:37.800Z,16.03
2018-09-02T06:41:44.425Z,15.99
2018-09-02T06:42:50.767Z,15.99
2018-09-02T06:43:57.898Z,16.00
2018-09-02T06:45:03.863Z,16.03
2018-09-02T06:46:10.304Z,16.04
2018-09-02T06:47:16.713Z,16.06
2018-09-02T06:48:23.115Z,16.09
2018-09-02T06:49:29.569Z,16.12
2018-09-02T06:50:36.233Z,16.14
2018-09-02T06:51:42.930Z,16.14
2018-09-02T06:52:49.741Z,16.16
2018-09-02T06:53:56.614Z,16.16
2018-09-02T06:55:03.068Z,16.18
2018-09-02T06:56:10.027Z,16.20
2018-09-02T06:57:16.765Z,16.21
2018-09-02T06:58:22.775Z,16.22
2018-09-02T06:59:29.818Z,16.26
2018-09-02T07:00:36.061Z,16.25
2018-09-02T07:01:42.407Z,16.25
2018-09-02T07:02:49.216Z,16.25
2018-09-02T07:03:56.185Z,16.25
2018-09-02T07:05:02.883Z,16.30
2018-09-02T07:06:09.428Z,16.26
2018-09-02T07:07:15.974Z,16.25
2018-09-02T07:08:21.762Z,16.26
2018-09-02T07:09:28.242Z,16.26
2018-09-02T07:10:34.686Z,16.22
2018-09-02T07:11:41.289Z,16.25
2018-09-02T07:12:47.578Z,16.26
2018-09-02T07:13:54.023Z,16.26
2018-09-02T07:15:00.088Z,16.27
2018-09-02T07:16:07.544Z,16.28
2018-09-02T07:17:13.964Z,16.31
2018-09-02T07:18:21.403Z,16.30
2018-09-02T07:19:27.514Z,16.31
2018-09-02T07:20:34.120Z,16.34
2018-09-02T07:21:40.541Z,16.34
2018-09-02T07:22:47.072Z,16.38
2018-09-02T07:23:54.004Z,16.34
2018-09-02T07:25:00.520Z,16.32
2018-09-02T07:26:07.139Z,16.31
2018-09-02T07:27:13.654Z,16.25
2018-09-02T07:28:21.095Z,16.24
2018-09-02T07:29:27.703Z,16.26
2018-09-02T07:30:34.309Z,16.25
2018-09-02T07:31:40.753Z,16.26
2018-09-02T07:32:47.144Z,16.26
2018-09-02T07:33:54.497Z,16.24
2018-09-02T07:35:01.582Z,16.25
2018-09-02T07:36:08.304Z,16.31
2018-09-02T07:37:14.835Z,16.32
2018-09-02T07:38:21.175Z,16.32
2018-09-02T07:39:28.206Z,16.31
2018-09-02T07:40:36.460Z,16.34
2018-09-02T07:41:42.721Z,16.31
2018-09-02T07:42:49.979Z,16.28
2018-09-02T07:43:56.632Z,16.28
2018-09-02T07:45:03.330Z,16.29
2018-09-02T07:46:09.406Z,16.30
2018-09-02T07:47:15.607Z,16.28
2018-09-02T07:48:22.956Z,16.27
2018-09-02T07:49:29.377Z,16.29
2018-09-02T07:50:35.929Z,16.29
2018-09-02T07:51:42.246Z,16.29
2018-09-02T07:52:48.631Z,16.28
2018-09-02T07:53:55.060Z,16.28
2018-09-02T07:55:02.076Z,16.30
2018-09-02T07:56:08.528Z,16.31
2018-09-02T07:57:14.883Z,16.35
2018-09-02T07:58:21.309Z,16.33
2018-09-02T07:59:28.553Z,16.32
2018-09-02T08:00:34.967Z,16.33
2018-09-02T08:01:41.274Z,16.35
2018-09-02T08:02:47.647Z,16.36
2018-09-02T08:03:54.200Z,16.36
2018-09-02T08:05:00.551Z,16.40
2018-09-02T08:06:06.504Z,16.39
2018-09-02T08:07:13.047Z,16.35
2018-09-02T08:08:19.435Z,16.39
2018-09-02T08:09:25.908Z,16.39
2018-09-02T08:10:32.312Z,16.41
2018-09-02T08:11:38.704Z,16.38
2018-09-02T08:12:45.172Z,16.25
2018-09-02T08:13:51.547Z,16.20
2018-09-02T08:14:57.948Z,16.07
2018-09-02T08:16:04.129Z,16.08
2018-09-02T08:17:10.425Z,15.87
2018-09-02T08:18:16.754Z,15.76
2018-09-02T08:19:23.178Z,15.72
2018-09-02T08:20:29.623Z,15.66
2018-09-02T08:21:35.919Z,15.62
2018-09-02T08:22:42.091Z,15.55
2018-09-02T08:23:48.295Z,15.53
2018-09-02T08:24:54.691Z,15.55
2018-09-02T08:26:01.079Z,15.56
2018-09-02T08:27:07.356Z,15.57
2018-09-02T08:28:13.432Z,15.50
2018-09-02T08:29:19.834Z,15.50
2018-09-02T08:30:26.237Z,15.52
2018-09-02T08:31:32.642Z,15.54
2018-09-02T08:32:38.923Z,15.57
2018-09-02T08:33:45.661Z,15.57
2018-09-02T08:34:51.935Z,15.49
2018-09-02T08:35:58.395Z,15.49
2018-09-02T08:37:04.737Z,15.48
2018-09-02T08:38:11.083Z,15.44
2018-09-02T08:39:17.578Z,15.42
2018-09-02T08:40:24.136Z,15.48
2018-09-02T08:41:30.465Z,15.43
2018-09-02T08:42:37.432Z,15.41
2018-09-02T08:43:43.777Z,15.41
2018-09-02T08:44:50.163Z,15.40
2018-09-02T08:45:56.651Z,15.33
2018-09-02T08:47:03.027Z,15.32
2018-09-02T08:48:09.437Z,15.33
2018-09-02T08:49:15.897Z,15.30
2018-09-02T08:50:30.144Z,15.30
2018-09-02T08:51:39.760Z,15.30
2018-09-02T08:52:52.686Z,15.24
2018-09-02T08:54:26.807Z,15.27
2018-09-02T08:55:37.308Z,15.30
2018-09-02T08:56:47.613Z,15.29
2018-09-02T08:57:53.949Z,15.28
2018-09-02T08:59:00.389Z,15.41
2018-09-02T09:00:05.992Z,15.38
2018-09-02T09:01:12.430Z,15.37
2018-09-02T09:02:19.734Z,15.42
2018-09-02T09:03:25.816Z,15.32
2018-09-02T09:04:32.221Z,15.29
2018-09-02T09:05:43.517Z,15.28
2018-09-02T09:06:49.915Z,15.39
2018-09-02T09:07:56.017Z,15.36
2018-09-02T09:09:02.674Z,15.32
2018-09-02T09:10:08.835Z,15.46
2018-09-02T09:11:16.609Z,15.37
2018-09-02T09:12:24.962Z,15.38
2018-09-02T09:13:32.392Z,15.41
2018-09-02T09:14:40.675Z,15.35
2018-09-02T09:15:49.328Z,15.44
2018-09-02T09:16:59.651Z,15.39
2018-09-02T09:18:07.415Z,15.45
2018-09-02T09:19:15.116Z,15.48
2018-09-02T09:20:23.857Z,15.48
2018-09-02T09:21:31.722Z,15.48
2018-09-02T09:22:38.694Z,15.51
2018-09-02T09:23:45.379Z,15.59
2018-09-02T09:24:51.762Z,15.50
2018-09-02T09:25:58.495Z,15.65
2018-09-02T09:27:04.448Z,15.57
2018-09-02T09:28:10.937Z,15.46
2018-09-02T09:29:17.356Z,15.44
2018-09-02T09:30:23.716Z,15.38
2018-09-02T09:31:30.052Z,15.36
2018-09-02T09:32:36.473Z,15.42
2018-09-02T09:33:42.873Z,15.41
2018-09-02T09:34:49.248Z,15.34
2018-09-02T09:35:55.703Z,15.35
2018-09-02T09:37:02.034Z,15.32
2018-09-02T09:38:08.440Z,15.35
2018-09-02T09:39:14.875Z,15.37
2018-09-02T09:40:21.258Z,15.31
2018-09-02T09:41:27.686Z,15.26
2018-09-02T09:42:34.101Z,15.18
2018-09-02T09:43:40.502Z,15.24
2018-09-02T09:44:47.057Z,15.25
2018-09-02T09:45:53.803Z,15.15
2018-09-02T09:47:00.774Z,15.12
2018-09-02T09:48:07.193Z,15.07
2018-09-02T09:49:13.323Z,15.09
2018-09-02T09:50:19.796Z,15.07
2018-09-02T09:51:26.220Z,15.14
2018-09-02T09:52:34.042Z,15.08
2018-09-02T09:53:40.489Z,15.08
2018-09-02T09:54:47.131Z,15.09
2018-09-02T09:55:53.752Z,15.23
2018-09-02T09:57:01.439Z,15.16
2018-09-02T09:58:07.221Z,15.08
2018-09-02T09:59:14.736Z,15.01
2018-09-02T10:00:20.880Z,15.00
2018-09-02T10:01:27.659Z,15.02
2018-09-02T10:02:39.120Z,15.04
2018-09-02T10:03:45.740Z,15.14
2018-09-02T10:04:52.281Z,15.07
2018-09-02T10:05:58.604Z,15.15
2018-09-02T10:07:04.352Z,15.15
2018-09-02T10:08:10.727Z,15.17
2018-09-02T10:09:17.081Z,15.19
2018-09-02T10:10:23.836Z,15.16
2018-09-02T10:11:30.263Z,15.17
2018-09-02T10:12:36.975Z,15.21
2018-09-02T10:13:43.268Z,15.12
2018-09-02T10:14:50.315Z,15.14
2018-09-02T10:15:56.687Z,15.09
2018-09-02T10:17:02.828Z,15.12
2018-09-02T10:18:08.998Z,15.07
2018-09-02T10:19:15.618Z,15.02
2018-09-02T10:20:22.592Z,15.07
2018-09-02T10:22:39.643Z,15.00
2018-09-02T10:23:46.089Z,14.97
2018-09-02T10:24:52.489Z,15.00
2018-09-02T10:25:59.671Z,14.97
2018-09-02T10:27:06.127Z,14.94
2018-09-02T10:28:12.374Z,14.98
2018-09-02T10:29:18.852Z,15.00
2018-09-02T10:30:25.263Z,15.02
2018-09-02T10:31:31.682Z,15.06
2018-09-02T10:32:38.297Z,15.12
2018-09-02T10:33:44.733Z,15.12
2018-09-02T10:34:51.121Z,15.01
2018-09-02T10:35:57.568Z,15.00
2018-09-02T10:37:04.006Z,14.98
2018-09-02T10:38:11.393Z,14.91
2018-09-02T10:39:17.805Z,14.93
2018-09-02T10:40:24.243Z,15.00
2018-09-02T10:41:30.939Z,15.01
2018-09-02T10:42:42.612Z,15.04
2018-09-02T10:43:49.622Z,15.04
2018-09-02T10:44:56.884Z,15.11
2018-09-02T10:46:03.709Z,15.16
2018-09-02T10:47:10.097Z,15.25
2018-09-02T10:48:16.535Z,15.28
2018-09-02T10:49:22.651Z,15.14
2018-09-02T10:50:29.118Z,15.28
2018-09-02T10:51:35.301Z,15.24
2018-09-02T10:52:41.755Z,15.24
2018-09-02T10:53:48.177Z,15.21
2018-09-02T10:54:54.544Z,15.28
2018-09-02T10:56:00.932Z,15.24
2018-09-02T10:57:07.316Z,15.31
2018-09-02T10:58:13.864Z,15.28
2018-09-02T10:59:20.215Z,15.27
2018-09-02T11:00:27.672Z,15.28
2018-09-02T11:01:34.057Z,15.21
2018-09-02T11:02:40.925Z,15.22
2018-09-02T11:03:47.537Z,15.22
2018-09-02T11:04:55.173Z,15.18
2018-09-02T11:06:02.527Z,15.25
2018-09-02T11:07:09.048Z,15.23
2018-09-02T11:08:16.580Z,15.24
2018-09-02T11:09:23.400Z,15.26
2018-09-02T11:10:29.745Z,15.31
2018-09-02T11:11:36.617Z,15.28
2018-09-02T11:12:43.360Z,15.24
2018-09-02T11:13:49.814Z,15.31
2018-09-02T11:14:57.186Z,15.33
2018-09-02T11:16:03.371Z,15.34
2018-09-02T11:17:09.812Z,15.42
2018-09-02T11:18:16.634Z,15.44
2018-09-02T11:19:23.337Z,15.39
2018-09-02T11:20:29.527Z,15.54
2018-09-02T11:21:36.003Z,15.48
2018-09-02T11:22:42.419Z,15.48
2018-09-02T11:23:48.835Z,15.43
2018-09-02T11:24:55.234Z,15.43
2018-09-02T11:26:01.396Z,15.43
2018-09-02T11:27:07.848Z,15.49
2018-09-02T11:28:14.234Z,15.47
2018-09-02T11:29:20.442Z,15.50
2018-09-02T11:30:26.853Z,15.52
2018-09-02T11:31:33.187Z,15.51
2018-09-02T11:32:39.446Z,15.51
2018-09-02T11:33:45.907Z,15.57
2018-09-02T11:34:52.448Z,15.58
2018-09-02T11:35:58.881Z,15.63
2018-09-02T11:37:06.857Z,15.62
2018-09-02T11:38:17.415Z,15.63
2018-09-02T11:39:25.380Z,15.65
2018-09-02T11:40:33.875Z,15.69
2018-09-02T11:41:43.245Z,15.67
2018-09-02T11:42:51.410Z,15.68
2018-09-02T11:43:58.722Z,15.72
2018-09-02T11:45:06.317Z,15.75
2018-09-02T11:46:13.070Z,15.78
2018-09-02T11:47:20.282Z,15.78
2018-09-02T11:48:26.396Z,15.76
2018-09-02T11:49:32.804Z,15.78
2018-09-02T11:50:39.216Z,15.74
2018-09-02T11:51:45.292Z,15.80
2018-09-02T11:52:52.293Z,15.70
2018-09-02T11:53:58.707Z,15.68
2018-09-02T11:55:04.863Z,15.65
2018-09-02T11:56:11.399Z,15.64
2018-09-02T11:57:17.669Z,15.61
2018-09-02T11:58:24.121Z,15.64
2018-09-02T11:59:30.470Z,15.67
2018-09-02T12:00:37.029Z,15.69
2018-09-02T12:01:43.126Z,15.64
2018-09-02T12:02:49.535Z,15.63
2018-09-02T12:03:56.549Z,15.66
2018-09-02T12:05:02.982Z,15.59
2018-09-02T12:06:09.391Z,15.62
2018-09-02T12:07:15.885Z,15.66
2018-09-02T12:08:22.309Z,15.80
2018-09-02T12:09:29.404Z,15.79
2018-09-02T12:10:36.161Z,15.69
2018-09-02T12:11:42.680Z,15.72
2018-09-02T12:12:48.960Z,15.76
2018-09-02T12:13:55.656Z,15.75
2018-09-02T12:15:02.057Z,15.71
2018-09-02T12:16:08.988Z,15.72
2018-09-02T12:17:15.416Z,15.75
2018-09-02T12:18:21.620Z,15.78
2018-09-02T12:19:28.038Z,15.88
2018-09-02T12:20:34.479Z,15.80
2018-09-02T12:21:40.640Z,15.75
2018-09-02T12:22:47.075Z,15.70
2018-09-02T12:23:53.631Z,15.73
2018-09-02T12:25:00.121Z,15.74
2018-09-02T12:26:06.194Z,15.72
2018-09-02T12:27:12.675Z,15.73
2018-09-02T12:28:19.079Z,15.73
2018-09-02T12:29:26.480Z,15.75
2018-09-02T12:30:32.907Z,15.68
2018-09-02T12:31:39.392Z,15.70
2018-09-02T12:32:45.973Z,15.73
2018-09-02T12:33:52.480Z,15.72
2018-09-02T12:34:58.916Z,15.75
2018-09-02T12:36:04.898Z,15.80
2018-09-02T12:37:10.966Z,15.82
2018-09-02T12:38:17.423Z,15.85
2018-09-02T12:39:23.831Z,15.89
2018-09-02T12:40:31.097Z,15.87
2018-09-02T12:41:37.820Z,15.88
2018-09-02T12:42:44.527Z,15.87
2018-09-02T12:43:51.645Z,15.83
2018-09-02T12:44:58.143Z,15.88
2018-09-02T12:46:04.493Z,15.87
2018-09-02T12:47:10.968Z,15.92
2018-09-02T12:48:17.666Z,15.97
2018-09-02T12:49:24.227Z,15.96
2018-09-02T12:50:31.853Z,16.06
2018-09-02T12:51:38.066Z,16.01
2018-09-02T12:52:45.054Z,15.99
2018-09-02T12:53:51.697Z,16.02
2018-09-02T12:54:57.905Z,16.13
2018-09-02T12:56:04.320Z,16.14
2018-09-02T12:57:10.841Z,16.10
2018-09-02T12:58:17.485Z,16.11
2018-09-02T12:59:25.032Z,16.09
2018-09-02T13:00:31.171Z,16.07
2018-09-02T13:01:37.636Z,16.08
2018-09-02T13:02:44.033Z,16.02
2018-09-02T13:03:51.450Z,16.00
2018-09-02T13:04:57.895Z,15.98
2018-09-02T13:06:04.266Z,16.02
2018-09-02T13:07:10.607Z,16.02
2018-09-02T13:08:17.054Z,16.03
2018-09-02T13:09:23.510Z,16.05
2018-09-02T13:10:30.094Z,16.07
2018-09-02T13:11:37.431Z,16.05
2018-09-02T13:12:43.701Z,16.14
2018-09-02T13:13:50.133Z,16.13
2018-09-02T13:14:56.535Z,16.13
2018-09-02T13:16:02.863Z,16.09
2018-09-02T13:17:09.296Z,16.05
2018-09-02T13:18:16.617Z,16.06
2018-09-02T13:19:22.925Z,16.06
2018-09-02T13:20:29.329Z,16.03
2018-09-02T13:21:35.771Z,16.12
2018-09-02T13:22:42.153Z,16.27
2018-09-02T13:23:49.465Z,16.16
2018-09-02T13:24:56.453Z,16.12
2018-09-02T13:26:02.829Z,16.09
2018-09-02T13:27:09.126Z,16.07
2018-09-02T13:28:15.876Z,16.06
2018-09-02T13:29:21.979Z,16.09
2018-09-02T13:30:28.414Z,16.10
2018-09-02T13:31:34.801Z,16.13
2018-09-02T13:32:41.313Z,16.19
2018-09-02T13:33:47.524Z,16.23
2018-09-02T13:34:54.328Z,16.19
2018-09-02T13:36:00.479Z,16.16
2018-09-02T13:37:07.291Z,16.18
2018-09-02T13:38:14.251Z,16.17
2018-09-02T13:39:20.381Z,16.20
2018-09-02T13:40:26.905Z,16.20
2018-09-02T13:41:33.211Z,16.23
2018-09-02T13:42:39.144Z,16.22
2018-09-02T13:43:45.493Z,16.30
2018-09-02T13:44:52.056Z,16.25
2018-09-02T13:45:58.197Z,16.20
2018-09-02T13:47:04.269Z,16.18
2018-09-02T13:48:10.415Z,16.22
2018-09-02T13:49:16.640Z,16.23
2018-09-02T13:50:22.964Z,16.25
2018-09-02T13:51:28.977Z,16.26
2018-09-02T13:52:35.358Z,16.27
2018-09-02T13:53:41.505Z,16.27
2018-09-02T13:54:47.780Z,16.28
2018-09-02T13:55:53.891Z,16.31
2018-09-02T13:57:00.620Z,16.36
2018-09-02T13:58:07.028Z,16.31
2018-09-02T13:59:13.240Z,16.31
2018-09-02T14:00:19.427Z,16.31
2018-09-02T14:01:25.576Z,16.32
2018-09-02T14:02:33.105Z,16.34
2018-09-02T14:03:39.469Z,16.35
2018-09-02T14:04:46.497Z,16.38
2018-09-02T14:05:52.988Z,16.37
2018-09-02T14:06:59.749Z,16.40
2018-09-02T14:08:06.615Z,16.43
2018-09-02T14:09:12.895Z,16.45
2018-09-02T14:10:19.111Z,16.48
2018-09-02T14:11:25.360Z,16.46
2018-09-02T14:12:31.348Z,16.48
2018-09-02T14:13:39.117Z,16.49
2018-09-02T14:14:45.292Z,16.45
2018-09-02T14:15:51.473Z,16.47
2018-09-02T14:16:57.688Z,16.54
2018-09-02T14:18:03.605Z,16.56
2018-09-02T14:19:11.689Z,16.53